createdAt,value
2022-10-17T00:02:08.582Z,14.44
2022-10-17T00:04:36.634Z,14.32
2022-10-17T00:07:04.676Z,14.30
2022-10-17T00:09:34.100Z,14.27
2022-10-17T00:12:02.713Z,14.33
2022-10-17T00:14:30.739Z,14.34
2022-10-17T00:16:58.835Z,14.16
2022-10-17T00:19:27.022Z,14.36
2022-10-17T00:21:55.566Z,14.27
2022-10-17T00:24:23.595Z,14.35
2022-10-17T00:26:52.971Z,14.31
2022-10-17T00:29:21.001Z,14.25
2022-10-17T00:31:49.353Z,14.24
2022-10-17T00:34:17.392Z,14.24
2022-10-17T00:36:45.968Z,14.20
2022-10-17T00:39:14.139Z,14.20
2022-10-17T00:41:42.212Z,14.14
2022-10-17T00:44:47.038Z,14.06
2022-10-17T00:47:19.065Z,14.00
2022-10-17T00:49:48.920Z,14.13
2022-10-17T00:52:22.872Z,14.18
2022-10-17T00:54:54.560Z,14.11
2022-10-17T00:57:22.636Z,14.17
2022-10-17T00:59:54.293Z,14.08
2022-10-17T01:02:24.923Z,14.16
2022-10-17T01:04:55.117Z,14.12
2022-10-17T01:07:23.274Z,13.94
2022-10-17T01:09:51.557Z,14.06
2022-10-17T01:12:22.076Z,13.90
2022-10-17T01:15:07.005Z,13.92
2022-10-17T01:17:47.636Z,13.94
2022-10-17T01:20:43.228Z,13.92
2022-10-17T01:23:40.427Z,13.87
2022-10-17T01:26:17.407Z,13.73
2022-10-17T01:29:10.411Z,13.80
2022-10-17T01:31:44.079Z,13.71
2022-10-17T01:34:16.136Z,13.87
2022-10-17T01:36:50.302Z,13.79
2022-10-17T01:39:26.889Z,13.68
2022-10-17T01:42:00.473Z,13.65
2022-10-17T01:44:31.496Z,13.59
2022-10-17T01:47:04.741Z,13.54
2022-10-17T01:49:34.941Z,13.54
2022-10-17T01:52:05.545Z,13.68
2022-10-17T01:54:36.271Z,13.70
2022-10-17T01:57:07.527Z,13.52
2022-10-17T01:59:39.366Z,13.52
2022-10-17T02:02:09.781Z,13.39
2022-10-17T02:04:38.011Z,13.63
2022-10-17T02:07:09.621Z,13.67
2022-10-17T02:09:38.624Z,13.66
2022-10-17T02:12:35.228Z,13.41
2022-10-17T02:15:13.870Z,13.36
2022-10-17T02:17:47.612Z,13.39
2022-10-17T02:20:21.016Z,13.46
2022-10-17T02:22:53.042Z,13.39
2022-10-17T02:25:25.264Z,13.56
2022-10-17T02:27:59.916Z,13.53
2022-10-17T02:30:32.754Z,13.45
2022-10-17T02:33:03.685Z,13.61
2022-10-17T02:35:34.300Z,13.51
2022-10-17T02:38:03.872Z,13.50
2022-10-17T02:40:32.568Z,13.47
2022-10-17T02:43:01.714Z,13.55
2022-10-17T02:45:35.888Z,13.53
2022-10-17T02:48:10.076Z,13.46
2022-10-17T02:50:44.645Z,13.50
2022-10-17T02:53:16.449Z,13.30
2022-10-17T02:55:48.889Z,13.39
2022-10-17T02:58:20.434Z,13.43
2022-10-17T03:00:48.988Z,13.43
2022-10-17T03:03:23.408Z,13.33
2022-10-17T03:05:52.423Z,13.54
2022-10-17T03:08:24.067Z,13.38
2022-10-17T03:10:52.485Z,13.27
2022-10-17T03:13:22.034Z,13.52
2022-10-17T03:15:51.048Z,13.53
2022-10-17T03:18:19.091Z,13.43
2022-10-17T03:20:50.636Z,13.36
2022-10-17T03:23:18.667Z,13.50
2022-10-17T03:25:47.342Z,13.55
2022-10-17T03:28:16.710Z,13.54
2022-10-17T03:30:44.835Z,13.56
2022-10-17T03:33:12.938Z,13.54
2022-10-17T03:35:41.567Z,13.44
2022-10-17T03:38:11.364Z,13.57
2022-10-17T03:40:39.490Z,13.39
2022-10-17T03:43:07.755Z,13.37
2022-10-17T03:45:36.941Z,13.44
2022-10-17T03:48:06.129Z,13.32
2022-10-17T03:50:34.164Z,13.56
2022-10-17T03:53:02.184Z,13.53
2022-10-17T03:55:31.605Z,13.46
2022-10-17T03:57:59.901Z,13.48
2022-10-17T04:00:28.098Z,13.36
2022-10-17T04:02:59.526Z,13.43
2022-10-17T04:05:28.086Z,13.43
2022-10-17T04:07:59.800Z,13.27
2022-10-17T04:10:51.745Z,13.31
2022-10-17T04:13:19.887Z,13.27
2022-10-17T04:15:55.425Z,13.17
2022-10-17T04:18:23.766Z,13.25
2022-10-17T04:20:51.932Z,13.29
2022-10-17T04:23:20.914Z,13.35
2022-10-17T04:25:52.027Z,13.16
2022-10-17T04:28:20.219Z,13.20
2022-10-17T04:30:49.958Z,13.09
2022-10-17T04:33:21.510Z,13.12
2022-10-17T04:35:56.769Z,13.09
2022-10-17T04:38:28.412Z,13.10
2022-10-17T04:41:00.129Z,13.09
2022-10-17T04:43:28.203Z,13.20
2022-10-17T04:45:56.322Z,13.08
2022-10-17T04:48:24.360Z,12.98
2022-10-17T04:50:56.105Z,13.05
2022-10-17T04:53:42.988Z,13.28
2022-10-17T04:56:14.252Z,13.25
2022-10-17T04:58:43.457Z,13.17
2022-10-17T05:01:13.290Z,13.10
2022-10-17T05:03:43.033Z,12.99
2022-10-17T05:06:12.516Z,13.07
2022-10-17T05:08:41.327Z,13.18
2022-10-17T05:11:19.140Z,12.95
2022-10-17T05:13:51.206Z,12.85
2022-10-17T05:16:20.123Z,12.89
2022-10-17T05:18:52.783Z,12.98
2022-10-17T05:21:22.148Z,12.89
2022-10-17T05:23:50.566Z,12.95
2022-10-17T05:26:20.546Z,13.14
2022-10-17T05:28:49.849Z,12.98
2022-10-17T05:31:20.368Z,12.87
2022-10-17T05:33:48.529Z,13.02
2022-10-17T05:36:16.641Z,12.99
2022-10-17T05:38:44.891Z,13.04
2022-10-17T05:41:12.986Z,13.04
2022-10-17T05:43:42.403Z,12.83
2022-10-17T05:46:11.011Z,12.96
2022-10-17T05:48:40.252Z,12.87
2022-10-17T05:51:10.500Z,12.89
2022-10-17T05:53:40.297Z,13.08
2022-10-17T05:56:14.385Z,12.95
2022-10-17T05:58:53.239Z,13.13
2022-10-17T06:01:53.623Z,13.20
2022-10-17T06:04:23.400Z,13.02
2022-10-17T06:06:53.243Z,13.25
2022-10-17T06:09:21.568Z,13.23
2022-10-17T06:11:52.436Z,13.24
2022-10-17T06:14:22.882Z,13.38
2022-10-17T06:16:54.566Z,13.19
2022-10-17T06:19:22.603Z,13.29
2022-10-17T06:21:50.672Z,13.21
2022-10-17T06:24:22.679Z,13.36
2022-10-17T06:26:53.124Z,13.37
2022-10-17T06:29:23.950Z,13.56
2022-10-17T06:31:53.236Z,13.56
2022-10-17T06:34:22.026Z,13.58
2022-10-17T06:36:50.292Z,13.63
2022-10-17T06:39:20.077Z,13.59
2022-10-17T06:42:01.452Z,13.73
2022-10-17T06:44:59.806Z,13.71
2022-10-17T06:47:46.306Z,13.62
2022-10-17T06:50:43.239Z,13.80
2022-10-17T06:53:20.409Z,13.79
2022-10-17T06:56:14.304Z,13.85
2022-10-17T06:59:10.660Z,13.84
2022-10-17T07:02:01.899Z,13.87
2022-10-17T07:04:31.109Z,13.96
2022-10-17T07:09:34.469Z,14.00
2022-10-17T07:12:02.571Z,14.02
2022-10-17T07:14:32.863Z,14.03
2022-10-17T07:17:02.827Z,14.18
2022-10-17T07:19:33.228Z,14.13
2022-10-17T07:22:01.287Z,14.22
2022-10-17T07:24:29.581Z,14.31
2022-10-17T07:27:15.874Z,14.33
2022-10-17T07:29:44.045Z,14.40
2022-10-17T07:32:34.663Z,14.57
2022-10-17T07:35:03.525Z,14.45
2022-10-17T07:37:32.065Z,14.57
2022-10-17T07:40:01.292Z,14.53
2022-10-17T07:42:29.550Z,14.53
2022-10-17T07:44:58.580Z,14.57
2022-10-17T07:47:31.421Z,14.55
2022-10-17T07:50:02.182Z,14.64
2022-10-17T07:52:30.468Z,14.78
2022-10-17T07:54:58.730Z,14.88
2022-10-17T07:57:26.983Z,15.04
2022-10-17T07:59:55.323Z,15.17
2022-10-17T08:02:24.978Z,15.06
2022-10-17T08:04:53.103Z,15.19
2022-10-17T08:07:27.003Z,15.18
2022-10-17T08:09:57.637Z,15.12
2022-10-17T08:12:26.236Z,15.27
2022-10-17T08:14:54.318Z,15.31
2022-10-17T08:17:22.814Z,15.35
2022-10-17T08:19:50.803Z,15.42
2022-10-17T08:22:18.988Z,15.50
2022-10-17T08:24:48.417Z,15.62
2022-10-17T08:27:21.514Z,15.72
2022-10-17T08:29:52.863Z,15.83
2022-10-17T08:32:21.856Z,15.90
2022-10-17T08:34:50.153Z,15.99
2022-10-17T08:37:18.336Z,16.21
2022-10-17T08:39:48.057Z,16.23
2022-10-17T08:42:32.332Z,16.24
2022-10-17T08:45:05.919Z,16.33
2022-10-17T08:47:37.531Z,16.48
2022-10-17T08:50:07.683Z,16.52
2022-10-17T08:52:39.107Z,16.65
2022-10-17T08:55:16.442Z,16.58
2022-10-17T08:57:44.842Z,16.74
2022-10-17T09:00:19.226Z,16.84
2022-10-17T09:02:57.692Z,16.94
2022-10-17T09:05:34.947Z,16.97
2022-10-17T09:08:26.112Z,16.98
2022-10-17T09:10:58.955Z,17.14
2022-10-17T09:13:38.013Z,17.22
2022-10-17T09:16:16.236Z,17.33
2022-10-17T09:18:47.752Z,17.36
2022-10-17T09:21:20.968Z,17.38
2022-10-17T09:23:59.445Z,17.48
2022-10-17T09:26:38.742Z,17.62
2022-10-17T09:29:15.408Z,17.69
2022-10-17T09:31:46.767Z,17.76
2022-10-17T09:34:14.875Z,17.86
2022-10-17T09:36:44.124Z,17.91
2022-10-17T09:39:15.118Z,17.98
2022-10-17T09:41:47.259Z,17.99
2022-10-17T09:44:19.008Z,18.10
2022-10-17T09:46:57.742Z,18.23
2022-10-17T09:49:37.300Z,18.33
2022-10-17T09:52:07.332Z,18.32
2022-10-17T09:54:42.928Z,18.46
2022-10-17T09:57:13.969Z,18.56
2022-10-17T09:59:47.992Z,18.68
2022-10-17T10:02:19.783Z,18.72
2022-10-17T10:05:07.255Z,18.77
2022-10-17T10:07:38.204Z,18.93
2022-10-17T10:10:08.251Z,18.98
2022-10-17T10:12:39.848Z,19.01
2022-10-17T10:15:32.126Z,18.99
2022-10-17T10:18:00.183Z,19.11
2022-10-17T10:20:32.491Z,19.26
2022-10-17T10:23:17.434Z,19.28
2022-10-17T10:25:56.405Z,19.29
2022-10-17T10:28:28.055Z,19.41
2022-10-17T10:30:57.308Z,19.45
2022-10-17T10:33:29.253Z,19.60
2022-10-17T10:35:59.476Z,19.59
2022-10-17T10:38:27.571Z,19.71
2022-10-17T10:40:57.163Z,19.83
2022-10-17T10:43:33.292Z,19.87
2022-10-17T10:46:01.929Z,19.99
2022-10-17T10:48:33.431Z,20.06
2022-10-17T10:51:03.822Z,20.11
2022-10-17T10:53:41.458Z,20.21
2022-10-17T10:56:17.095Z,20.19
2022-10-17T10:58:54.449Z,20.08
2022-10-17T11:01:29.460Z,20.23
2022-10-17T11:04:21.547Z,20.28
2022-10-17T11:06:51.977Z,20.37
2022-10-17T11:09:30.093Z,20.25
2022-10-17T11:12:08.161Z,20.32
2022-10-17T11:14:44.533Z,20.43
2022-10-17T11:17:19.006Z,20.44
2022-10-17T11:19:53.561Z,20.57
2022-10-17T11:22:29.292Z,20.75
2022-10-17T11:25:00.940Z,20.86
2022-10-17T11:27:30.146Z,20.86
2022-10-17T11:29:59.792Z,21.06
2022-10-17T11:32:31.531Z,21.05
2022-10-17T11:35:04.863Z,21.07
2022-10-17T11:37:36.563Z,21.02
2022-10-17T11:40:09.370Z,21.13
2022-10-17T11:42:42.798Z,21.24
2022-10-17T11:45:15.470Z,21.25
2022-10-17T11:47:46.576Z,21.20
2022-10-17T11:53:14.514Z,21.12
2022-10-17T11:55:43.270Z,21.10
2022-10-17T11:58:24.944Z,21.18
2022-10-17T12:01:02.186Z,21.13
2022-10-17T12:03:36.956Z,21.04
2022-10-17T12:06:12.549Z,21.18
2022-10-17T12:08:45.967Z,21.35
2022-10-17T12:11:20.911Z,21.30
2022-10-17T12:13:54.687Z,21.26
2022-10-17T12:16:51.332Z,21.21
2022-10-17T12:19:28.818Z,21.41
2022-10-17T12:22:05.033Z,21.31
2022-10-17T12:24:40.121Z,21.28
2022-10-17T12:27:42.473Z,21.16
2022-10-17T12:30:19.983Z,21.33
2022-10-17T12:33:06.731Z,21.21
2022-10-17T12:35:37.611Z,21.28
2022-10-17T12:38:20.616Z,21.33
2022-10-17T12:41:06.105Z,21.31
2022-10-17T12:43:52.846Z,21.34
2022-10-17T12:46:48.402Z,21.32
2022-10-17T12:49:38.672Z,21.25
2022-10-17T12:52:35.303Z,21.12
2022-10-17T12:55:13.958Z,21.17
2022-10-17T12:57:48.556Z,21.26
2022-10-17T13:00:24.168Z,21.39
2022-10-17T13:02:55.415Z,21.35
2022-10-17T13:05:29.453Z,21.40
2022-10-17T13:07:59.971Z,21.40
2022-10-17T13:10:29.652Z,21.45
2022-10-17T13:13:06.501Z,21.62
2022-10-17T13:15:35.169Z,21.64
2022-10-17T13:18:03.330Z,21.54
2022-10-17T13:20:33.412Z,21.54
2022-10-17T13:23:01.514Z,21.60
2022-10-17T13:25:30.027Z,21.56
2022-10-17T13:28:07.538Z,21.61
2022-10-17T13:30:37.372Z,21.57
2022-10-17T13:33:19.377Z,21.45
2022-10-17T13:36:05.151Z,21.47
2022-10-17T13:38:36.636Z,21.45
2022-10-17T13:41:34.198Z,21.34
2022-10-17T13:44:02.759Z,21.45
2022-10-17T13:46:37.907Z,21.39
2022-10-17T13:49:12.172Z,21.40
2022-10-17T13:51:44.313Z,21.34
2022-10-17T13:54:20.427Z,21.40
2022-10-17T13:56:48.552Z,21.51
2022-10-17T13:59:24.175Z,21.49
2022-10-17T14:01:52.885Z,21.46
2022-10-17T14:04:21.024Z,21.63
2022-10-17T14:06:52.310Z,21.59
2022-10-17T14:09:23.868Z,21.61
2022-10-17T14:12:02.714Z,21.57
2022-10-17T14:14:46.207Z,21.53
2022-10-17T14:17:24.162Z,21.48
2022-10-17T14:20:06.556Z,21.51
2022-10-17T14:22:50.439Z,21.46
2022-10-17T14:25:30.790Z,21.45
2022-10-17T14:28:08.081Z,21.36
2022-10-17T14:30:55.590Z,21.36
2022-10-17T14:33:27.122Z,21.39
2022-10-17T14:35:56.886Z,21.45
2022-10-17T14:38:26.700Z,21.44
2022-10-17T14:41:09.769Z,21.34
2022-10-17T14:43:56.190Z,21.30
2022-10-17T14:46:24.411Z,21.29
2022-10-17T14:48:57.264Z,21.38
2022-10-17T14:51:25.324Z,21.31
2022-10-17T14:54:15.166Z,21.20
2022-10-17T14:56:44.223Z,21.14
2022-10-17T14:59:18.248Z,21.17
2022-10-17T15:01:54.003Z,21.05
2022-10-17T15:04:23.457Z,20.81
2022-10-17T15:06:55.529Z,20.78
2022-10-17T15:09:28.874Z,20.84
2022-10-17T15:11:59.376Z,20.72
2022-10-17T15:14:29.019Z,20.75
2022-10-17T15:16:58.013Z,20.63
2022-10-17T15:19:27.461Z,20.56
2022-10-17T15:21:56.492Z,20.59
2022-10-17T15:24:27.023Z,20.57
2022-10-17T15:26:56.635Z,20.43
2022-10-17T15:29:24.719Z,20.40
2022-10-17T15:32:00.489Z,20.33
2022-10-17T15:34:29.886Z,20.26
2022-10-17T15:36:58.930Z,20.21
2022-10-17T15:39:29.549Z,20.15
2022-10-17T15:41:58.854Z,20.22
2022-10-17T15:44:28.019Z,20.19
2022-10-17T15:46:57.324Z,20.09
2022-10-17T15:49:26.906Z,19.99
2022-10-17T15:51:55.443Z,20.02
2022-10-17T15:54:27.085Z,19.87
2022-10-17T15:56:58.026Z,19.79
2022-10-17T15:59:31.848Z,19.73
2022-10-17T16:02:02.179Z,19.69
2022-10-17T16:04:30.693Z,19.68
2022-10-17T16:06:59.059Z,19.61
2022-10-17T16:09:29.194Z,19.54
2022-10-17T16:11:58.583Z,19.60
2022-10-17T16:14:26.665Z,19.42
2022-10-17T16:16:54.686Z,19.46
2022-10-17T16:19:23.749Z,19.40
2022-10-17T16:21:51.812Z,19.33
2022-10-17T16:24:19.939Z,19.32
2022-10-17T16:26:47.947Z,19.22
2022-10-17T16:29:17.854Z,19.23
2022-10-17T16:31:46.767Z,19.16
2022-10-17T16:34:15.981Z,19.17
2022-10-17T16:36:44.242Z,19.12
2022-10-17T16:39:12.301Z,19.03
2022-10-17T16:41:40.720Z,19.02
2022-10-17T16:44:10.306Z,19.01
2022-10-17T16:46:39.777Z,18.98
2022-10-17T16:49:08.138Z,18.93
2022-10-17T16:51:36.934Z,18.94
2022-10-17T16:54:06.431Z,18.95
2022-10-17T16:56:35.082Z,18.88
2022-10-17T16:59:04.245Z,18.89
2022-10-17T17:01:33.137Z,18.84
2022-10-17T17:04:05.699Z,18.80
2022-10-17T17:06:34.409Z,18.76
2022-10-17T17:09:03.592Z,18.61
2022-10-17T17:11:33.458Z,18.63
2022-10-17T17:14:07.413Z,18.62
2022-10-17T17:16:37.581Z,18.64
2022-10-17T17:19:09.760Z,18.60
2022-10-17T17:21:40.057Z,18.53
2022-10-17T17:24:08.355Z,18.47
2022-10-17T17:26:37.561Z,18.74
2022-10-17T17:29:07.204Z,18.60
2022-10-17T17:31:39.689Z,18.52
2022-10-17T17:34:17.245Z,18.43
2022-10-17T17:36:50.296Z,18.38
2022-10-17T17:39:19.377Z,18.33
2022-10-17T17:41:49.701Z,18.40
2022-10-17T17:44:19.301Z,18.41
2022-10-17T17:46:49.643Z,18.33
2022-10-17T17:49:22.326Z,18.34
2022-10-17T17:51:52.411Z,18.28
2022-10-17T17:54:31.093Z,18.37
2022-10-17T17:57:03.691Z,18.21
2022-10-17T17:59:34.258Z,18.11
2022-10-17T18:02:06.724Z,18.13
2022-10-17T18:04:41.182Z,18.19
2022-10-17T18:07:13.344Z,18.24
2022-10-17T18:09:43.365Z,18.19
2022-10-17T18:12:13.094Z,18.24
2022-10-17T18:14:44.826Z,18.12
2022-10-17T18:17:14.466Z,18.12
2022-10-17T18:19:45.652Z,18.15
2022-10-17T18:22:15.827Z,18.23
2022-10-17T18:24:44.905Z,18.21
2022-10-17T18:27:16.542Z,18.17
2022-10-17T18:29:47.817Z,18.12
2022-10-17T18:32:17.927Z,18.09
2022-10-17T18:34:51.687Z,18.12
2022-10-17T18:37:21.210Z,18.14
2022-10-17T18:39:55.950Z,18.11
2022-10-17T18:42:27.394Z,18.10
2022-10-17T18:44:59.601Z,18.06
2022-10-17T18:47:32.165Z,18.07
2022-10-17T18:50:06.053Z,18.06
2022-10-17T18:52:43.666Z,18.24
2022-10-17T18:55:13.868Z,18.00
2022-10-17T18:57:46.955Z,17.92
2022-10-17T19:00:18.253Z,17.90
2022-10-17T19:02:48.082Z,17.81
2022-10-17T19:05:19.574Z,17.79
2022-10-17T19:07:53.902Z,17.90
2022-10-17T19:10:22.317Z,17.80
2022-10-17T19:12:51.875Z,17.81
2022-10-17T19:15:25.946Z,17.88
2022-10-17T19:17:55.756Z,17.74
2022-10-17T19:20:28.314Z,17.78
2022-10-17T19:22:58.213Z,17.77
2022-10-17T19:25:30.405Z,17.73
2022-10-17T19:28:03.964Z,17.68
2022-10-17T19:30:34.009Z,17.70
2022-10-17T19:33:04.144Z,17.64
2022-10-17T19:35:36.817Z,17.63
2022-10-17T19:38:09.352Z,17.70
2022-10-17T19:40:42.261Z,17.61
2022-10-17T19:43:11.934Z,17.66
2022-10-17T19:45:42.066Z,17.71
2022-10-17T19:48:13.412Z,17.60
2022-10-17T19:50:51.941Z,17.55
2022-10-17T19:53:21.299Z,17.57
2022-10-17T19:55:51.474Z,17.47
2022-10-17T19:58:22.517Z,17.50
2022-10-17T20:00:59.249Z,17.50
2022-10-17T20:03:30.604Z,17.47
2022-10-17T20:06:00.486Z,17.41
2022-10-17T20:08:30.425Z,17.41
2022-10-17T20:11:04.509Z,17.33
2022-10-17T20:13:35.375Z,17.34
2022-10-17T20:16:06.576Z,17.36
2022-10-17T20:18:35.870Z,17.38
2022-10-17T20:21:12.257Z,17.40
2022-10-17T20:23:41.259Z,17.32
2022-10-17T20:26:25.879Z,17.29
2022-10-17T20:29:02.683Z,17.24
2022-10-17T20:31:33.421Z,17.31
2022-10-17T20:34:01.563Z,17.34
2022-10-17T20:36:32.526Z,17.33
2022-10-17T20:39:03.271Z,17.32
2022-10-17T20:41:31.440Z,17.26
2022-10-17T20:44:02.585Z,17.33
2022-10-17T20:46:37.813Z,17.36
2022-10-17T20:49:07.468Z,17.25
2022-10-17T20:51:37.599Z,17.26
2022-10-17T20:54:08.200Z,17.22
2022-10-17T20:56:38.833Z,17.18
2022-10-17T20:59:12.211Z,17.14
2022-10-17T21:01:40.994Z,17.11
2022-10-17T21:04:40.603Z,17.06
2022-10-17T21:07:03.321Z,17.15
2022-10-17T21:09:31.428Z,17.10
2022-10-17T21:14:39.202Z,17.04
2022-10-17T21:17:07.861Z,17.02
2022-10-17T21:19:36.087Z,17.03
2022-10-17T21:22:05.839Z,17.03
2022-10-17T21:24:34.191Z,16.92
2022-10-17T21:27:02.459Z,17.08
2022-10-17T21:29:30.609Z,17.01
2022-10-17T21:32:02.439Z,16.93
2022-10-17T21:34:31.514Z,16.88
2022-10-17T21:37:06.162Z,16.91
2022-10-17T21:39:35.647Z,16.91
2022-10-17T21:42:07.252Z,16.84
2022-10-17T21:44:38.430Z,16.84
2022-10-17T21:47:07.623Z,16.87
2022-10-17T21:49:35.786Z,16.80
2022-10-17T21:52:07.332Z,16.82
2022-10-17T21:54:36.826Z,16.76
2022-10-17T21:57:06.082Z,16.65
2022-10-17T21:59:35.580Z,16.66
2022-10-17T22:02:03.898Z,16.68
2022-10-17T22:04:32.181Z,16.67
2022-10-17T22:07:02.596Z,16.60
2022-10-17T22:09:33.419Z,16.62
2022-10-17T22:12:05.402Z,16.58
2022-10-17T22:14:33.492Z,16.59
2022-10-17T22:17:03.892Z,16.63
2022-10-17T22:19:31.972Z,16.53
2022-10-17T22:22:00.579Z,16.60
2022-10-17T22:24:29.741Z,16.57
2022-10-17T22:27:00.401Z,16.60
2022-10-17T22:29:30.015Z,16.57
2022-10-17T22:32:00.456Z,16.51
2022-10-17T22:34:28.875Z,16.50
2022-10-17T22:36:57.822Z,16.53
2022-10-17T22:39:27.273Z,16.47
2022-10-17T22:41:55.578Z,16.42
2022-10-17T22:44:23.897Z,16.39
2022-10-17T22:46:55.872Z,16.41
2022-10-17T22:49:23.985Z,16.21
2022-10-17T22:51:54.580Z,16.23
2022-10-17T22:54:22.942Z,16.26
2022-10-17T22:56:51.088Z,16.22
2022-10-17T22:59:19.121Z,16.14
2022-10-17T23:01:47.242Z,16.15
2022-10-17T23:04:19.333Z,16.15
2022-10-17T23:06:48.691Z,16.25
2022-10-17T23:09:19.058Z,16.19
2022-10-17T23:11:48.517Z,16.29
2022-10-17T23:14:19.253Z,16.28
2022-10-17T23:16:51.623Z,16.27
2022-10-17T23:19:23.484Z,16.25
2022-10-17T23:21:53.622Z,16.24
2022-10-17T23:24:21.728Z,16.26
2022-10-17T23:26:51.266Z,16.20
2022-10-17T23:29:19.646Z,16.29
2022-10-17T23:31:47.810Z,16.21
2022-10-17T23:34:15.844Z,16.15
2022-10-17T23:36:46.551Z,16.10
2022-10-17T23:39:14.682Z,16.09
2022-10-17T23:41:45.044Z,16.08
2022-10-17T23:44:14.142Z,16.10
2022-10-17T23:46:44.391Z,16.01
2022-10-17T23:49:13.883Z,15.83
2022-10-17T23:51:42.667Z,15.89
2022-10-17T23:54:13.228Z,15.91
2022-10-17T23:56:43.416Z,15.91
2022-10-17T23:59:15.203Z,15.82
